createdAt,value
2023-03-28T00:00:36.713Z,1.38
2023-03-28T00:04:50.180Z,1.13
2023-03-28T00:09:02.596Z,1.10
2023-03-28T00:13:15.675Z,1.00
2023-03-28T00:17:28.073Z,0.88
2023-03-28T00:21:47.269Z,0.98
2023-03-28T00:26:07.995Z,1.20
2023-03-28T00:30:20.415Z,1.20
2023-03-28T00:34:34.328Z,1.17
2023-03-28T00:38:46.702Z,4.43
2023-03-28T00:42:59.043Z,6.45
2023-03-28T00:47:31.122Z,7.15
2023-03-28T00:51:48.090Z,9.68
2023-03-28T00:56:04.674Z,7.50
2023-03-28T01:00:19.464Z,8.82
2023-03-28T01:04:38.560Z,10.93
2023-03-28T01:08:52.734Z,21.30
2023-03-28T01:13:07.205Z,22.23
2023-03-28T01:17:20.068Z,15.73
2023-03-28T01:21:49.035Z,12.70
2023-03-28T01:26:11.175Z,11.82
2023-03-28T01:30:41.444Z,9.77
2023-03-28T01:36:33.943Z,8.18
2023-03-28T01:41:14.553Z,8.32
2023-03-28T01:45:34.275Z,10.35
2023-03-28T01:50:35.613Z,11.38
2023-03-28T01:55:05.889Z,8.52
2023-03-28T01:59:35.116Z,8.80
2023-03-28T02:04:20.798Z,6.90
2023-03-28T02:08:45.072Z,6.40
2023-03-28T02:13:24.696Z,6.18
2023-03-28T02:17:52.171Z,6.20
2023-03-28T02:22:39.354Z,5.15
2023-03-28T02:27:09.013Z,5.10
2023-03-28T02:31:28.325Z,4.38
2023-03-28T02:36:19.226Z,3.88
2023-03-28T02:40:55.986Z,4.03
2023-03-28T02:45:52.296Z,3.00
2023-03-28T02:50:32.833Z,3.17
2023-03-28T02:54:51.795Z,2.70
2023-03-28T02:59:41.082Z,2.33
2023-03-28T03:03:54.401Z,1.88
2023-03-28T03:08:08.023Z,2.22
2023-03-28T03:12:21.835Z,2.30
2023-03-28T03:16:35.183Z,2.20
2023-03-28T03:20:48.238Z,2.47
2023-03-28T03:25:06.909Z,2.53
2023-03-28T03:29:38.770Z,2.78
2023-03-28T03:33:56.817Z,2.97
2023-03-28T03:38:14.130Z,2.88
2023-03-28T03:42:26.638Z,3.50
2023-03-28T03:46:39.122Z,3.55
2023-03-28T03:50:52.124Z,3.13
2023-03-28T03:55:05.904Z,3.20
2023-03-28T03:59:22.904Z,3.20
2023-03-28T04:03:38.023Z,4.18
2023-03-28T04:07:51.519Z,3.42
2023-03-28T04:12:18.958Z,4.05
2023-03-28T04:16:40.956Z,3.88
2023-03-28T04:20:58.358Z,4.20
2023-03-28T04:25:30.330Z,4.70
2023-03-28T04:29:48.333Z,4.97
2023-03-28T04:34:30.503Z,4.47
2023-03-28T04:38:52.105Z,4.00
2023-03-28T04:43:29.286Z,3.50
2023-03-28T04:47:41.824Z,2.75
2023-03-28T04:52:01.688Z,2.53
2023-03-28T04:56:14.210Z,2.63
2023-03-28T05:00:27.572Z,2.70
2023-03-28T05:04:45.953Z,1.27
2023-03-28T05:08:59.739Z,2.30
2023-03-28T05:13:15.229Z,2.05
2023-03-28T05:17:33.612Z,1.90
2023-03-28T05:22:08.677Z,1.40
2023-03-28T05:26:24.207Z,1.73
2023-03-28T05:30:36.777Z,1.70
2023-03-28T05:34:50.614Z,1.70
2023-03-28T05:39:03.288Z,1.90
2023-03-28T05:43:15.742Z,2.25
2023-03-28T05:47:28.456Z,1.98
2023-03-28T05:51:42.769Z,1.98
2023-03-28T05:55:55.105Z,2.05
2023-03-28T06:00:12.660Z,2.20
2023-03-28T06:04:30.513Z,2.00
2023-03-28T06:08:43.158Z,2.42
2023-03-28T06:12:56.458Z,1.75
2023-03-28T06:17:10.663Z,2.47
2023-03-28T06:21:31.895Z,2.47
2023-03-28T06:25:49.438Z,2.10
2023-03-28T06:30:05.951Z,2.45
2023-03-28T06:34:26.784Z,2.35
2023-03-28T06:38:46.130Z,3.00
2023-03-28T06:42:58.701Z,3.00
2023-03-28T06:47:31.358Z,3.30
2023-03-28T06:51:43.837Z,3.60
2023-03-28T06:55:57.016Z,3.05
2023-03-28T07:00:10.370Z,3.15
2023-03-28T07:04:41.293Z,3.85
2023-03-28T07:08:54.307Z,3.97
2023-03-28T07:13:12.470Z,5.32
2023-03-28T07:17:34.785Z,5.03
2023-03-28T07:21:47.415Z,5.47
2023-03-28T07:25:59.934Z,5.13
2023-03-28T07:30:13.123Z,5.57
2023-03-28T07:34:25.586Z,7.70
2023-03-28T07:38:38.581Z,6.40
2023-03-28T07:42:51.324Z,5.93
2023-03-28T07:47:04.437Z,5.07
2023-03-28T07:51:17.655Z,4.65
2023-03-28T07:55:30.461Z,4.60
2023-03-28T07:59:43.214Z,5.10
2023-03-28T08:03:56.092Z,5.57
2023-03-28T08:08:15.787Z,4.80
2023-03-28T08:12:29.983Z,5.03
2023-03-28T08:16:43.743Z,4.45
2023-03-28T08:21:02.835Z,1.90
2023-03-28T08:25:18.318Z,1.50
2023-03-28T08:29:31.605Z,1.55
2023-03-28T08:33:45.543Z,1.77
2023-03-28T08:37:58.102Z,1.85
2023-03-28T08:42:19.805Z,1.40
2023-03-28T08:46:36.889Z,1.40
2023-03-28T08:51:16.300Z,1.58
2023-03-28T08:55:37.840Z,1.50
2023-03-28T09:00:15.351Z,1.70
2023-03-28T09:04:35.498Z,1.55
2023-03-28T09:09:17.767Z,1.65
2023-03-28T09:14:00.708Z,1.75
2023-03-28T09:18:44.160Z,1.30
2023-03-28T09:23:06.394Z,1.55
2023-03-28T09:27:50.894Z,1.20
2023-03-28T09:32:17.783Z,1.50
2023-03-28T09:36:45.316Z,1.20
2023-03-28T09:41:05.638Z,1.20
2023-03-28T09:45:50.315Z,1.00
2023-03-28T09:50:38.023Z,1.70
2023-03-28T09:54:51.396Z,1.45
2023-03-28T09:59:13.640Z,1.15
2023-03-28T10:03:33.193Z,1.10
2023-03-28T10:07:48.517Z,1.05
2023-03-28T10:12:21.613Z,1.10
2023-03-28T10:20:49.589Z,1.20
2023-03-28T10:25:06.545Z,1.08
2023-03-28T10:29:19.078Z,1.75
2023-03-28T10:33:40.631Z,1.10
2023-03-28T10:38:05.149Z,1.00
2023-03-28T10:42:47.095Z,1.02
2023-03-28T10:47:24.270Z,1.10
2023-03-28T10:52:17.508Z,1.35
2023-03-28T10:56:41.722Z,1.10
2023-03-28T11:01:12.074Z,1.13
2023-03-28T11:06:08.225Z,1.23
2023-03-28T11:10:35.379Z,1.30
2023-03-28T11:15:12.232Z,1.33
2023-03-28T11:19:46.164Z,1.30
2023-03-28T11:24:18.066Z,0.90
2023-03-28T11:28:53.401Z,1.00
2023-03-28T11:33:25.452Z,1.25
2023-03-28T11:38:10.648Z,2.05
2023-03-28T11:42:36.460Z,1.00
2023-03-28T11:46:59.416Z,1.10
2023-03-28T11:51:47.608Z,1.20
2023-03-28T11:56:28.289Z,1.05
2023-03-28T12:01:27.399Z,1.00
2023-03-28T12:10:18.700Z,1.00
2023-03-28T12:14:53.496Z,1.10
2023-03-28T12:19:38.548Z,1.00
2023-03-28T12:24:26.429Z,1.13
2023-03-28T12:28:56.230Z,1.23
2023-03-28T12:33:53.089Z,1.20
2023-03-28T12:38:35.348Z,1.60
2023-03-28T12:43:02.489Z,2.30
2023-03-28T12:47:21.259Z,0.90
2023-03-28T12:51:39.974Z,1.48
2023-03-28T12:55:59.075Z,1.10
2023-03-28T13:00:36.134Z,1.35
2023-03-28T13:05:18.370Z,1.10
2023-03-28T13:09:46.779Z,1.00
2023-03-28T13:14:33.028Z,1.10
2023-03-28T13:19:06.970Z,1.17
2023-03-28T13:23:28.798Z,1.25
2023-03-28T13:27:41.538Z,1.17
2023-03-28T13:32:04.753Z,1.05
2023-03-28T13:36:26.886Z,0.90
2023-03-28T13:40:48.376Z,0.98
2023-03-28T13:45:05.900Z,1.27
2023-03-28T13:49:21.394Z,1.42
2023-03-28T13:53:46.841Z,1.08
2023-03-28T13:58:02.096Z,1.20
2023-03-28T14:02:20.338Z,1.17
2023-03-28T14:06:42.472Z,0.82
2023-03-28T14:10:57.176Z,1.40
2023-03-28T14:15:15.205Z,1.17
2023-03-28T14:19:46.160Z,1.27
2023-03-28T14:24:05.168Z,1.50
2023-03-28T14:28:17.711Z,1.40
2023-03-28T14:32:33.155Z,1.50
2023-03-28T14:37:03.422Z,1.10
2023-03-28T14:41:21.716Z,1.00
2023-03-28T14:45:41.362Z,1.60
2023-03-28T14:49:54.704Z,1.67
2023-03-28T14:54:11.868Z,1.70
2023-03-28T14:58:25.264Z,0.98
2023-03-28T15:02:42.181Z,1.40
2023-03-28T15:06:57.457Z,1.10
2023-03-28T15:11:19.980Z,0.95
2023-03-28T15:15:36.174Z,1.10
2023-03-28T15:19:55.744Z,1.50
2023-03-28T15:24:16.294Z,1.67
2023-03-28T15:28:29.055Z,1.50
2023-03-28T15:32:41.716Z,1.27
2023-03-28T15:37:02.792Z,1.25
2023-03-28T15:41:42.668Z,1.80
2023-03-28T15:46:00.293Z,2.15
2023-03-28T15:50:26.640Z,2.00
2023-03-28T15:54:48.569Z,1.25
2023-03-28T15:59:14.833Z,1.60
2023-03-28T16:03:34.624Z,1.88
2023-03-28T16:07:47.104Z,2.15
2023-03-28T16:12:01.920Z,1.20
2023-03-28T16:16:30.412Z,4.45
2023-03-28T16:21:04.665Z,4.93
2023-03-28T16:25:17.880Z,2.95
2023-03-28T16:29:30.213Z,2.60
2023-03-28T16:33:42.663Z,1.98
2023-03-28T16:37:55.964Z,2.03
2023-03-28T16:42:09.109Z,2.70
2023-03-28T16:46:24.352Z,1.90
2023-03-28T16:50:37.518Z,2.13
2023-03-28T16:54:49.976Z,2.45
2023-03-28T16:59:04.153Z,2.45
2023-03-28T17:03:17.411Z,2.60
2023-03-28T17:07:29.941Z,3.03
2023-03-28T17:11:43.162Z,2.55
2023-03-28T17:15:56.554Z,3.92
2023-03-28T17:20:09.505Z,4.35
2023-03-28T17:24:22.013Z,3.85
2023-03-28T17:28:37.870Z,3.80
2023-03-28T17:32:51.724Z,3.45
2023-03-28T17:37:04.606Z,3.70
2023-03-28T17:41:17.722Z,4.32
2023-03-28T17:45:30.580Z,3.50
2023-03-28T17:49:43.364Z,3.42
2023-03-28T17:53:55.950Z,3.03
2023-03-28T17:58:09.792Z,3.80
2023-03-28T18:02:22.198Z,4.07
2023-03-28T18:06:47.574Z,3.95
2023-03-28T18:11:07.546Z,4.03
2023-03-28T18:15:19.893Z,5.00
2023-03-28T18:19:32.468Z,4.82
2023-03-28T18:23:44.919Z,5.50
2023-03-28T18:27:57.662Z,4.88
2023-03-28T18:32:10.036Z,5.72
2023-03-28T18:36:22.377Z,5.30
2023-03-28T18:40:34.872Z,4.85
2023-03-28T18:44:47.761Z,5.43
2023-03-28T18:49:01.075Z,5.22
2023-03-28T18:53:13.506Z,4.45
2023-03-28T18:57:25.922Z,4.50
2023-03-28T19:01:42.328Z,4.00
2023-03-28T19:06:01.353Z,4.05
2023-03-28T19:10:14.281Z,4.63
2023-03-28T19:14:26.891Z,6.75
2023-03-28T19:18:44.534Z,7.60
2023-03-28T19:22:57.048Z,8.93
2023-03-28T19:27:09.389Z,9.40
2023-03-28T19:31:25.777Z,9.80
2023-03-28T19:35:41.007Z,10.13
2023-03-28T19:39:53.476Z,10.10
2023-03-28T19:44:05.963Z,10.07
2023-03-28T19:48:18.500Z,9.40
2023-03-28T19:52:31.308Z,7.75
2023-03-28T19:56:43.808Z,8.43
2023-03-28T20:00:57.275Z,7.78
2023-03-28T20:05:10.064Z,9.15
2023-03-28T20:09:23.091Z,10.93
2023-03-28T20:13:36.384Z,8.82
2023-03-28T20:17:49.115Z,6.30
2023-03-28T20:22:01.502Z,5.85
2023-03-28T20:26:19.869Z,6.47
2023-03-28T20:30:32.992Z,7.28
2023-03-28T20:34:46.340Z,7.25
2023-03-28T20:39:01.001Z,8.10
2023-03-28T20:43:20.226Z,7.90
2023-03-28T20:47:32.572Z,7.30
2023-03-28T20:51:45.040Z,6.75
2023-03-28T20:56:03.804Z,6.65
2023-03-28T21:00:16.611Z,6.10
2023-03-28T21:04:29.203Z,5.53
2023-03-28T21:08:48.903Z,5.60
2023-03-28T21:13:01.574Z,5.32
2023-03-28T21:17:22.256Z,5.60
2023-03-28T21:21:34.895Z,5.00
2023-03-28T21:25:52.201Z,4.63
2023-03-28T21:30:08.134Z,3.75
2023-03-28T21:34:31.101Z,3.88
2023-03-28T21:38:44.854Z,3.60
2023-03-28T21:42:57.210Z,6.03
2023-03-28T21:47:09.696Z,5.75
2023-03-28T21:51:23.165Z,4.55
2023-03-28T21:55:35.921Z,4.50
2023-03-28T21:59:48.374Z,4.35
2023-03-28T22:04:01.208Z,4.20
2023-03-28T22:08:14.202Z,4.35
2023-03-28T22:12:27.603Z,3.85
2023-03-28T22:16:40.377Z,3.85
2023-03-28T22:20:55.879Z,4.07
2023-03-28T22:25:09.670Z,3.78
2023-03-28T22:29:21.942Z,2.88
2023-03-28T22:33:34.289Z,2.67
2023-03-28T22:37:46.904Z,2.58
2023-03-28T22:41:59.266Z,2.40
2023-03-28T22:46:16.661Z,2.10
2023-03-28T22:50:30.008Z,2.25
2023-03-28T22:54:42.861Z,2.60
2023-03-28T22:58:56.151Z,1.85
2023-03-28T23:03:08.526Z,1.98
2023-03-28T23:07:21.187Z,1.98
2023-03-28T23:11:33.530Z,0.40
2023-03-28T23:15:45.929Z,1.40
2023-03-28T23:19:58.768Z,1.80
2023-03-28T23:24:12.159Z,1.38
2023-03-28T23:28:24.700Z,1.58
2023-03-28T23:32:37.997Z,1.38
2023-03-28T23:36:52.561Z,1.30
2023-03-28T23:41:05.082Z,1.35
2023-03-28T23:45:17.493Z,3.22
2023-03-28T23:49:29.891Z,2.28
2023-03-28T23:53:42.372Z,2.60
2023-03-28T23:57:56.197Z,1.92
